Time;durP1;ratioP1;P1;durP2;ratioP2;P2;SDS_P1;SDS_P2;PMS_P1;PMS_P2;Temp;Humidity;BMP_temperature;BMP_pressure;BME280_temperature;BME280_humidity;BME280_pressure;Samples;Min_cycle;Max_cycle;Signal;HPM_P1;HPM_P2
2022/08/09 00:04:09;;;;;;;1.40;1.30;;;;;;;;;;12749812;27;20031;-74
2022/08/09 00:10:11;;;;;;;1.45;1.00;;;;;;;;;;12749573;27;20050;-75
2022/08/09 00:16:13;;;;;;;1.77;1.60;;;;;;;;;;12750326;27;20047;-75
2022/08/09 00:22:15;;;;;;;1.85;1.75;;;;;;;;;;12751237;27;20038;-75
2022/08/09 00:28:18;;;;;;;1.30;1.13;;;;;;;;;;12751175;27;20038;-74
2022/08/09 00:34:19;;;;;;;1.52;1.42;;;;;;;;;;12749791;27;20043;-74
2022/08/09 00:40:21;;;;;;;1.55;1.45;;;;;;;;;;12751127;27;20042;-75
2022/08/09 00:46:23;;;;;;;2.03;1.70;;;;;;;;;;12750444;27;20376;-75
2022/08/09 00:52:26;;;;;;;1.70;1.60;;;;;;;;;;12748900;27;20531;-74
2022/08/09 00:58:30;;;;;;;1.13;1.05;;;;;;;;;;12749694;27;20038;-74
2022/08/09 01:04:45;;;;;;;1.30;1.23;;;;;;;;;;12748075;27;20464;-74
2022/08/09 01:10:51;;;;;;;1.40;1.30;;;;;;;;;;12749423;27;20031;-74
2022/08/09 01:16:58;;;;;;;1.00;1.00;;;;;;;;;;12749251;27;20043;-74
2022/08/09 01:23:18;;;;;;;1.85;1.42;;;;;;;;;;12747530;27;20031;-74
2022/08/09 01:29:25;;;;;;;1.35;1.30;;;;;;;;;;12748288;27;20061;-74
2022/08/09 01:35:33;;;;;;;1.25;1.17;;;;;;;;;;12748061;27;20503;-74
2022/08/09 01:41:35;;;;;;;1.10;1.05;;;;;;;;;;12747894;27;20492;-74
2022/08/09 01:47:38;;;;;;;1.40;1.30;;;;;;;;;;12748446;27;20039;-74
2022/08/09 01:53:40;;;;;;;1.00;1.00;;;;;;;;;;12746803;27;20043;-74
2022/08/09 01:59:44;;;;;;;1.20;1.10;;;;;;;;;;12747110;27;20035;-74
2022/08/09 02:05:48;;;;;;;1.02;1.02;;;;;;;;;;12746857;27;20038;-74
2022/08/09 02:11:50;;;;;;;1.65;1.20;;;;;;;;;;12745379;27;20049;-74
2022/08/09 02:17:53;;;;;;;1.42;1.33;;;;;;;;;;12745734;27;20404;-74
2022/08/09 02:23:57;;;;;;;1.65;1.40;;;;;;;;;;12745966;27;20400;-74
2022/08/09 02:29:59;;;;;;;1.70;1.60;;;;;;;;;;12745945;27;20399;-74
2022/08/09 02:36:02;;;;;;;1.70;1.60;;;;;;;;;;12746082;27;20499;-74
2022/08/09 02:42:06;;;;;;;1.20;1.20;;;;;;;;;;12745766;27;20051;-74
2022/08/09 02:48:09;;;;;;;0.98;0.98;;;;;;;;;;12744162;28;20187;-74
2022/08/09 02:54:13;;;;;;;1.40;1.30;;;;;;;;;;12726477;28;20043;-73
2022/08/09 03:00:15;;;;;;;1.33;1.15;;;;;;;;;;12726642;28;20508;-73
2022/08/09 03:06:16;;;;;;;;;;;;;;;;;;12743909;28;20388;-73
2022/08/09 03:12:18;;;;;;;1.42;1.10;;;;;;;;;;12726857;28;19915;-74
2022/08/09 03:18:21;;;;;;;1.10;1.10;;;;;;;;;;12744542;28;20039;-74
2022/08/09 03:24:24;;;;;;;1.35;1.25;;;;;;;;;;12744841;27;20031;-73
2022/08/09 03:30:26;;;;;;;1.30;1.20;;;;;;;;;;12748223;27;20050;-73
2022/08/09 03:36:28;;;;;;;1.30;1.25;;;;;;;;;;12753731;27;20043;-74
2022/08/09 03:42:29;;;;;;;;;;;;;;;;;;12754612;27;20047;-74
2022/08/09 03:48:32;;;;;;;0.90;0.90;;;;;;;;;;12753211;27;19922;-75
2022/08/09 03:54:38;;;;;;;1.98;1.35;;;;;;;;;;12752905;27;20043;-74
2022/08/09 04:00:41;;;;;;;1.67;1.58;;;;;;;;;;12752769;27;20024;-73
2022/08/09 04:07:01;;;;;;;4.00;2.13;;;;;;;;;;12759880;27;20053;-73
2022/08/09 04:13:10;;;;;;;1.60;1.50;;;;;;;;;;12753446;27;20043;-74
2022/08/09 04:19:12;;;;;;;1.65;1.40;;;;;;;;;;12750508;27;20051;-75
2022/08/09 04:25:14;;;;;;;3.22;2.20;;;;;;;;;;12751520;27;20034;-75
2022/08/09 04:31:15;;;;;;;1.20;1.10;;;;;;;;;;12750009;27;20042;-75
2022/08/09 04:37:22;;;;;;;1.48;1.38;;;;;;;;;;12750597;27;20031;-74
2022/08/09 04:43:24;;;;;;;1.58;1.48;;;;;;;;;;12723707;27;20062;-74
2022/08/09 04:49:31;;;;;;;2.22;1.52;;;;;;;;;;12731583;27;20038;-75
2022/08/09 04:55:33;;;;;;;1.15;1.15;;;;;;;;;;12731342;27;20050;-74
2022/08/09 05:01:35;;;;;;;1.70;1.60;;;;;;;;;;12749542;27;20400;-74
2022/08/09 05:07:37;;;;;;;2.00;1.90;;;;;;;;;;12749086;27;20607;-74
2022/08/09 05:13:39;;;;;;;1.58;1.48;;;;;;;;;;12749022;27;20047;-74
2022/08/09 05:19:41;;;;;;;2.05;1.30;;;;;;;;;;12748411;27;20058;-75
2022/08/09 05:25:42;;;;;;;;;;;;;;;;;;12748497;27;20039;-74
2022/08/09 05:31:45;;;;;;;2.10;1.10;;;;;;;;;;12729348;27;19938;-73
2022/08/09 05:37:47;;;;;;;1.80;1.70;;;;;;;;;;12729125;27;20027;-74
2022/08/09 05:43:49;;;;;;;;;;;;;;;;;;12730240;27;20499;-73
2022/08/09 05:49:51;;;;;;;1.80;1.70;;;;;;;;;;12748888;27;19907;-74
2022/08/09 05:55:53;;;;;;;1.63;1.45;;;;;;;;;;12745982;27;20035;-74
2022/08/09 06:01:54;;;;;;;;;;;;;;;;;;12728908;27;20023;-74
2022/08/09 06:07:56;;;;;;;1.60;1.50;;;;;;;;;;12746636;27;19915;-74
2022/08/09 06:13:58;;;;;;;;;;;;;;;;;;12746718;27;20047;-74
2022/08/09 06:19:59;;;;;;;2.30;1.57;;;;;;;;;;12727755;27;19908;-75
2022/08/09 06:26:01;;;;;;;;;;;;;;;;;;12746349;27;20035;-73
2022/08/09 06:32:03;;;;;;;1.50;1.13;;;;;;;;;;12727534;27;20257;-74
2022/08/09 06:38:04;;;;;;;1.20;1.05;;;;;;;;;;12745168;27;20024;-73
2022/08/09 06:44:06;;;;;;;;;;;;;;;;;;12710696;28;20503;-75
2022/08/09 06:50:08;;;;;;;1.13;1.13;;;;;;;;;;12745089;28;19907;-75
2022/08/09 06:56:10;;;;;;;1.52;0.95;;;;;;;;;;12745025;28;20036;-75
2022/08/09 07:02:12;;;;;;;0.80;0.80;;;;;;;;;;12746382;27;20027;-74
2022/08/09 07:08:13;;;;;;;1.15;1.05;;;;;;;;;;12737190;27;20046;-74
2022/08/09 07:14:16;;;;;;;1.27;1.17;;;;;;;;;;12755212;27;20054;-75
2022/08/09 07:20:18;;;;;;;2.08;1.10;;;;;;;;;;12752816;27;20053;-74
2022/08/09 07:26:20;;;;;;;1.13;1.00;;;;;;;;;;12735638;27;20031;-74
2022/08/09 07:32:22;;;;;;;1.75;1.63;;;;;;;;;;12735731;27;20047;-74
2022/08/09 07:38:23;;;;;;;1.23;1.13;;;;;;;;;;12753717;27;20415;-73
2022/08/09 07:44:25;;;;;;;1.27;1.17;;;;;;;;;;12735129;27;20039;-73
2022/08/09 07:50:28;;;;;;;1.63;1.45;;;;;;;;;;12734853;27;20027;-74
2022/08/09 07:56:30;;;;;;;1.73;1.23;;;;;;;;;;12752681;27;20046;-74
2022/08/09 08:02:32;;;;;;;1.67;1.27;;;;;;;;;;12734413;27;20407;-73
2022/08/09 08:08:33;;;;;;;1.00;1.00;;;;;;;;;;12752275;27;20048;-73
2022/08/09 08:14:35;;;;;;;1.50;1.40;;;;;;;;;;12750889;27;20042;-74
2022/08/09 08:20:37;;;;;;;1.70;1.60;;;;;;;;;;12733372;27;20035;-73
2022/08/09 08:26:38;;;;;;;1.52;1.42;;;;;;;;;;12751652;27;20388;-73
2022/08/09 08:32:40;;;;;;;1.70;1.60;;;;;;;;;;12750859;27;20488;-74
2022/08/09 08:38:43;;;;;;;1.73;1.63;;;;;;;;;;12751073;27;20039;-75
2022/08/09 08:44:45;;;;;;;1.45;1.35;;;;;;;;;;12750303;27;20031;-73
2022/08/09 08:50:47;;;;;;;2.15;1.52;;;;;;;;;;12750044;27;20034;-74
2022/08/09 08:56:49;;;;;;;1.27;1.17;;;;;;;;;;12731772;27;20480;-74
2022/08/09 09:02:51;;;;;;;1.77;1.67;;;;;;;;;;12749829;27;20503;-75
2022/08/09 09:08:54;;;;;;;2.42;2.28;;;;;;;;;;12730927;27;20035;-75
2022/08/09 09:15:00;;;;;;;1.83;1.73;;;;;;;;;;12713621;27;20046;-75
2022/08/09 09:21:02;;;;;;;1.70;1.60;;;;;;;;;;12749054;27;20027;-74
2022/08/09 09:27:04;;;;;;;1.50;1.40;;;;;;;;;;12730535;27;20039;-74
2022/08/09 09:33:07;;;;;;;1.80;1.70;;;;;;;;;;12729661;27;20054;-74
2022/08/09 09:39:10;;;;;;;2.00;1.40;;;;;;;;;;12729399;27;20050;-74
2022/08/09 09:45:12;;;;;;;1.08;1.08;;;;;;;;;;12747735;27;20062;-74
2022/08/09 09:51:19;;;;;;;2.05;1.42;;;;;;;;;;12747220;27;20380;-73
2022/08/09 09:57:22;;;;;;;0.98;0.98;;;;;;;;;;12738233;27;20039;-74
2022/08/09 10:03:39;;;;;;;1.67;0.82;;;;;;;;;;12746458;27;20031;-74
2022/08/09 10:09:48;;;;;;;1.45;1.13;;;;;;;;;;12729124;27;20062;-74
2022/08/09 10:15:51;;;;;;;0.90;0.90;;;;;;;;;;12745903;27;20051;-73
2022/08/09 10:21:53;;;;;;;1.05;1.00;;;;;;;;;;12727464;27;20035;-75
2022/08/09 10:27:55;;;;;;;1.23;1.05;;;;;;;;;;12745816;27;20036;-74
2022/08/09 10:33:57;;;;;;;1.10;1.00;;;;;;;;;;12745134;27;20500;-73
2022/08/09 10:39:59;;;;;;;3.05;1.02;;;;;;;;;;12726326;27;20401;-74
2022/08/09 10:46:13;;;;;;;0.90;0.90;;;;;;;;;;12710014;28;20027;-74
2022/08/09 10:52:20;;;;;;;0.90;0.73;;;;;;;;;;12744931;28;20039;-75
2022/08/09 10:58:32;;;;;;;0.98;0.90;;;;;;;;;;12727137;28;20027;-75
2022/08/09 11:04:35;;;;;;;1.17;1.00;;;;;;;;;;12724044;28;20031;-74
2022/08/09 11:10:42;;;;;;;1.25;1.20;;;;;;;;;;12742853;28;20032;-74
2022/08/09 11:16:44;;;;;;;1.00;0.90;;;;;;;;;;12724132;28;20395;-74
2022/08/09 11:22:46;;;;;;;1.30;1.02;;;;;;;;;;12742606;28;20039;-73
2022/08/09 11:28:48;;;;;;;1.40;0.70;;;;;;;;;;12724204;28;20522;-75
2022/08/09 11:34:51;;;;;;;0.80;0.80;;;;;;;;;;12741623;28;20507;-74
2022/08/09 11:40:53;;;;;;;2.05;0.75;;;;;;;;;;12742015;28;20058;-75
2022/08/09 11:46:56;;;;;;;1.10;0.90;;;;;;;;;;12706852;28;20028;-75
2022/08/09 11:52:58;;;;;;;2.08;1.30;;;;;;;;;;12748457;27;20046;-74
2022/08/09 11:59:00;;;;;;;0.70;0.70;;;;;;;;;;12731699;27;20027;-75
2022/08/09 12:05:02;;;;;;;1.67;0.90;;;;;;;;;;12750115;27;20038;-74
2022/08/09 12:11:03;;;;;;;0.73;0.73;;;;;;;;;;12731146;27;20027;-74
2022/08/09 12:17:07;;;;;;;1.10;1.00;;;;;;;;;;12749197;27;20053;-75
2022/08/09 12:23:09;;;;;;;0.90;0.90;;;;;;;;;;12748907;27;20039;-74
2022/08/09 12:29:15;;;;;;;0.60;0.60;;;;;;;;;;12730352;27;20384;-74
2022/08/09 12:35:17;;;;;;;0.70;0.70;;;;;;;;;;12729852;27;20042;-73
2022/08/09 12:41:26;;;;;;;0.68;0.68;;;;;;;;;;12729780;27;20121;-74
2022/08/09 12:47:28;;;;;;;1.25;1.02;;;;;;;;;;12747656;27;20030;-74
2022/08/09 12:53:32;;;;;;;0.93;0.93;;;;;;;;;;12747198;27;20045;-75
2022/08/09 12:59:33;;;;;;;2.65;0.93;;;;;;;;;;12728481;27;20487;-74
2022/08/09 13:05:45;;;;;;;0.80;0.80;;;;;;;;;;12746850;27;20029;-74
2022/08/09 13:11:48;;;;;;;1.02;0.90;;;;;;;;;;12711089;27;20028;-74
2022/08/09 13:17:50;;;;;;;1.20;0.70;;;;;;;;;;12746468;27;20043;-74
2022/08/09 13:23:59;;;;;;;1.27;0.70;;;;;;;;;;12746181;27;20058;-75
2022/08/09 13:30:02;;;;;;;1.20;1.10;;;;;;;;;;12727392;27;20039;-73
2022/08/09 13:36:04;;;;;;;0.90;0.90;;;;;;;;;;12727730;27;20409;-74
2022/08/09 13:42:13;;;;;;;0.60;0.60;;;;;;;;;;12747401;27;20066;-73
2022/08/09 13:48:15;;;;;;;1.05;0.73;;;;;;;;;;12747232;27;20388;-74
2022/08/09 13:54:16;;;;;;;0.98;0.90;;;;;;;;;;12746739;27;20484;-75
2022/08/09 14:00:19;;;;;;;0.60;0.60;;;;;;;;;;12746565;27;20035;-74
2022/08/09 14:06:21;;;;;;;1.85;0.93;;;;;;;;;;12745500;27;20027;-74
2022/08/09 14:12:23;;;;;;;1.00;0.90;;;;;;;;;;12745358;27;20050;-74
2022/08/09 14:18:26;;;;;;;0.70;0.70;;;;;;;;;;12743779;27;20050;-74
2022/08/09 14:24:27;;;;;;;1.52;1.13;;;;;;;;;;12744336;27;20027;-74
2022/08/09 14:30:29;;;;;;;0.75;0.70;;;;;;;;;;12724651;27;20027;-74
2022/08/09 14:36:31;;;;;;;0.47;0.45;;;;;;;;;;12742553;27;20043;-74
2022/08/09 14:42:32;;;;;;;0.98;0.90;;;;;;;;;;12724238;27;20051;-74
2022/08/09 14:48:35;;;;;;;0.60;0.60;;;;;;;;;;12724242;28;20047;-74
2022/08/09 14:54:37;;;;;;;1.73;0.80;;;;;;;;;;12723795;28;20523;-74
2022/08/09 15:00:39;;;;;;;1.33;0.60;;;;;;;;;;12741581;28;20027;-74
2022/08/09 15:06:41;;;;;;;0.95;0.93;;;;;;;;;;12724274;28;20073;-74
2022/08/09 15:12:43;;;;;;;4.15;0.75;;;;;;;;;;12723505;28;20047;-75
2022/08/09 15:18:45;;;;;;;0.52;0.52;;;;;;;;;;12723458;28;20113;-75
2022/08/09 15:24:47;;;;;;;1.27;0.63;;;;;;;;;;12746016;27;20345;-75
2022/08/09 15:30:48;;;;;;;1.58;0.80;;;;;;;;;;12751555;27;20042;-73
2022/08/09 15:36:50;;;;;;;1.67;0.60;;;;;;;;;;12732784;27;20043;-74
2022/08/09 15:42:52;;;;;;;1.30;0.73;;;;;;;;;;12735264;27;20061;-74
2022/08/09 15:48:54;;;;;;;1.20;0.55;;;;;;;;;;12734665;27;20032;-74
2022/08/09 15:54:56;;;;;;;0.50;0.50;;;;;;;;;;12733976;27;20039;-75
2022/08/09 16:00:58;;;;;;;0.98;0.60;;;;;;;;;;12734159;27;20030;-74
2022/08/09 16:07:00;;;;;;;1.30;0.52;;;;;;;;;;12733917;27;20031;-74
2022/08/09 16:13:01;;;;;;;0.50;0.50;;;;;;;;;;12733937;27;20047;-74
2022/08/09 16:19:04;;;;;;;1.10;0.50;;;;;;;;;;12733196;27;20043;-74
2022/08/09 16:25:06;;;;;;;0.40;0.40;;;;;;;;;;12732465;27;20042;-74
2022/08/09 16:31:09;;;;;;;1.33;0.50;;;;;;;;;;12750679;27;20043;-74
2022/08/09 16:37:10;;;;;;;0.73;0.50;;;;;;;;;;12749597;27;20042;-75
2022/08/09 16:43:12;;;;;;;1.45;0.45;;;;;;;;;;12750972;27;20054;-74
2022/08/09 16:49:14;;;;;;;0.50;0.50;;;;;;;;;;12731947;27;20054;-74
2022/08/09 16:55:16;;;;;;;0.70;0.70;;;;;;;;;;12749575;27;20541;-75
2022/08/09 17:01:18;;;;;;;0.73;0.55;;;;;;;;;;12730855;27;20031;-74
2022/08/09 17:07:19;;;;;;;0.55;0.55;;;;;;;;;;12749315;27;20494;-73
2022/08/09 17:13:21;;;;;;;0.50;0.50;;;;;;;;;;12722394;27;20035;-74
2022/08/09 17:19:23;;;;;;;1.00;0.88;;;;;;;;;;12748472;27;20084;-75
2022/08/09 17:25:25;;;;;;;1.17;0.90;;;;;;;;;;12730264;27;20046;-75
2022/08/09 17:31:26;;;;;;;0.70;0.70;;;;;;;;;;12729364;27;20027;-75
2022/08/09 17:37:28;;;;;;;2.13;1.10;;;;;;;;;;12747870;27;20047;-75
2022/08/09 17:43:30;;;;;;;0.73;0.70;;;;;;;;;;12747472;27;20074;-75
2022/08/09 17:49:32;;;;;;;1.13;0.77;;;;;;;;;;12710886;27;20031;-75
2022/08/09 17:55:35;;;;;;;1.15;0.60;;;;;;;;;;12746470;27;20043;-75
2022/08/09 18:01:37;;;;;;;0.95;0.60;;;;;;;;;;12746756;27;20034;-75
2022/08/09 18:07:38;;;;;;;1.08;0.75;;;;;;;;;;12747183;27;20038;-74
2022/08/09 18:13:40;;;;;;;1.15;0.77;;;;;;;;;;12727762;27;20047;-73
2022/08/09 18:19:42;;;;;;;1.23;0.70;;;;;;;;;;12710491;27;20034;-74
2022/08/09 18:25:44;;;;;;;1.15;0.90;;;;;;;;;;12745450;27;20189;-73
2022/08/09 18:31:46;;;;;;;0.80;0.80;;;;;;;;;;12710586;27;20038;-74
2022/08/09 18:37:48;;;;;;;1.23;0.85;;;;;;;;;;12727075;27;20419;-73
2022/08/09 18:43:50;;;;;;;0.90;0.90;;;;;;;;;;12744979;27;20456;-74
2022/08/09 18:49:52;;;;;;;0.85;0.80;;;;;;;;;;12726444;28;20031;-73
2022/08/09 18:55:54;;;;;;;1.20;0.90;;;;;;;;;;12745410;28;20047;-74
2022/08/09 19:01:56;;;;;;;0.80;0.80;;;;;;;;;;12752932;27;20027;-74
2022/08/09 19:07:57;;;;;;;1.02;0.95;;;;;;;;;;12736960;27;20023;-74
2022/08/09 19:14:00;;;;;;;1.98;1.10;;;;;;;;;;12754202;27;20189;-74
2022/08/09 19:20:02;;;;;;;1.30;0.90;;;;;;;;;;12718965;27;20039;-73
2022/08/09 19:26:04;;;;;;;1.80;1.00;;;;;;;;;;12754286;27;20043;-74
2022/08/09 19:32:06;;;;;;;1.27;0.85;;;;;;;;;;12753703;27;20035;-74
2022/08/09 19:38:08;;;;;;;2.75;1.20;;;;;;;;;;12745719;27;20044;-74
2022/08/09 19:44:10;;;;;;;1.83;1.40;;;;;;;;;;12749648;27;20035;-74
2022/08/09 19:50:12;;;;;;;1.77;1.45;;;;;;;;;;12750815;27;20367;-75
2022/08/09 19:56:14;;;;;;;1.67;1.17;;;;;;;;;;12750283;27;20400;-74
2022/08/09 20:02:16;;;;;;;1.23;1.13;;;;;;;;;;12732165;27;20054;-74
2022/08/09 20:08:18;;;;;;;2.20;1.00;;;;;;;;;;12731296;27;20042;-74
2022/08/09 20:14:20;;;;;;;1.23;1.20;;;;;;;;;;12748101;27;20050;-74
2022/08/09 20:20:22;;;;;;;1.30;1.20;;;;;;;;;;12749237;27;20042;-74
2022/08/09 20:26:23;;;;;;;1.85;0.90;;;;;;;;;;12748988;27;20565;-75
2022/08/09 20:32:25;;;;;;;1.35;0.95;;;;;;;;;;12730758;27;20034;-75
2022/08/09 20:38:27;;;;;;;1.50;1.40;;;;;;;;;;12750918;27;20054;-74
2022/08/09 20:44:28;;;;;;;1.45;1.27;;;;;;;;;;12748666;27;20042;-74
2022/08/09 20:50:30;;;;;;;1.35;1.25;;;;;;;;;;12748938;27;20023;-74
2022/08/09 20:56:32;;;;;;;1.40;1.30;;;;;;;;;;12713365;27;20047;-74
2022/08/09 21:02:34;;;;;;;1.60;1.00;;;;;;;;;;12729683;27;20504;-74
2022/08/09 21:08:37;;;;;;;1.50;1.40;;;;;;;;;;12748045;27;20030;-75
2022/08/09 21:14:39;;;;;;;1.23;0.80;;;;;;;;;;12747659;27;20043;-75
2022/08/09 21:20:41;;;;;;;1.13;1.02;;;;;;;;;;12747102;27;20031;-74
2022/08/09 21:26:43;;;;;;;1.27;1.17;;;;;;;;;;12746846;27;20035;-74
2022/08/09 21:32:44;;;;;;;1.10;0.98;;;;;;;;;;12711521;27;20053;-74
2022/08/09 21:38:46;;;;;;;1.45;0.98;;;;;;;;;;12729685;27;20054;-74
2022/08/09 21:44:48;;;;;;;1.52;1.20;;;;;;;;;;12747688;27;20031;-73
2022/08/09 21:50:49;;;;;;;1.52;1.42;;;;;;;;;;12747275;27;20031;-74
2022/08/09 21:56:52;;;;;;;2.25;0.93;;;;;;;;;;12746865;27;20054;-74
2022/08/09 22:02:55;;;;;;;2.55;1.20;;;;;;;;;;12746323;27;20174;-74
2022/08/09 22:08:56;;;;;;;1.92;1.20;;;;;;;;;;12746890;27;20034;-73
2022/08/09 22:14:58;;;;;;;4.90;1.38;;;;;;;;;;12727905;27;20043;-74
2022/08/09 22:21:00;;;;;;;1.30;0.98;;;;;;;;;;12727818;27;20035;-75
2022/08/09 22:27:02;;;;;;;1.23;0.95;;;;;;;;;;12746183;27;20028;-75
2022/08/09 22:33:04;;;;;;;1.73;0.95;;;;;;;;;;12726541;27;20047;-74
2022/08/09 22:39:06;;;;;;;0.52;0.52;;;;;;;;;;12745284;27;20136;-74
2022/08/09 22:45:08;;;;;;;1.15;0.82;;;;;;;;;;12726987;27;20397;-74
2022/08/09 22:51:10;;;;;;;0.90;0.70;;;;;;;;;;12726526;28;20042;-73
2022/08/09 22:57:11;;;;;;;1.75;0.85;;;;;;;;;;12744593;28;20043;-74
2022/08/09 23:03:15;;;;;;;1.90;1.33;;;;;;;;;;12726330;28;20031;-74
2022/08/09 23:09:17;;;;;;;1.33;0.80;;;;;;;;;;12745007;28;20034;-74
2022/08/09 23:15:19;;;;;;;2.55;0.80;;;;;;;;;;12744502;28;20058;-74
2022/08/09 23:21:21;;;;;;;1.73;0.93;;;;;;;;;;12744849;28;20037;-74
2022/08/09 23:27:22;;;;;;;0.70;0.70;;;;;;;;;;12744326;27;20050;-74
2022/08/09 23:33:25;;;;;;;2.55;0.93;;;;;;;;;;12742669;28;20050;-74
2022/08/09 23:39:27;;;;;;;1.25;0.60;;;;;;;;;;12744248;28;20408;-74
2022/08/09 23:45:29;;;;;;;1.27;0.82;;;;;;;;;;12747108;27;20034;-74
2022/08/09 23:51:31;;;;;;;1.42;0.80;;;;;;;;;;12753269;27;20023;-74
2022/08/09 23:57:32;;;;;;;0.85;0.73;;;;;;;;;;12752957;27;20031;-74
